Welcome to our new website - Welkom op onze vernieuwde website - Bienvenue sur notre nouveau site web - Willkommen auf unserer neuen Website
Check our progress frequently. Prüfen Sie unsere Fortschritte regelmäßig. Consultez notre progression fréquemment. Komt u straks nog eens terug


Bezoek onze andere website:

Template documentation
and downloads

And another site



METAR rapporten vliegvelden

   
EBBR - Brussels International Airport, Belgium
Afstand tot: W 14 km
Gewijzigd: Jun 1 2020 1:50 pm
Helder  
Helder  
   Wind: Oosten 17 km/h
Wind: Oosten 17 km/h
Temperatuur: 24°C
Dauwpunt: 7°C
Vochtigheid: 34%
Barometer: 1021 hPa
Zicht: meer dan 10 km
Bewolking: Helder
EBBR 011150Z 09009KT 050V130 CAVOK 24/07 Q1021 NOSIG
EBBE - Beauvechain (Bevekom), Belgium
Afstand tot: ZZO 17 km
Gewijzigd: Jun 1 2020 1:55 pm
Helder  
Helder  
   Wind: ONO 20 km/h
Wind: ONO 20 km/h
Temperatuur: 23°C
Dauwpunt: 9°C
Vochtigheid: 41%
Barometer: 1021 hPa
Bewolking: Helder
Zicht: meer dan 10 km
Bewolking: Helder
EBBE 011155Z AUTO 06011KT 9999 NCD 23/09 Q1021 BLU
EBDT - Schaffen, Belgium
Afstand tot: ONO 29 km
Gewijzigd: Jun 1 2020 1:25 pm
Bewolking  
Bewolking  
   Wind: NO 15 km/h
Wind: NO 15 km/h
Temperatuur: 24°C
Dauwpunt: 8°C
Vochtigheid: 36%
Barometer: 1021 hPa
Bewolking: Bewolking
Zicht: meer dan 10 km
Bewolking: Licht bewolkt 2438.4 m,
Grotendeels bewolkt 2895.6 m,
Bewolking 3352.8 m
EBDT 011125Z AUTO 04008KT 9999 FEW080/// BKN095/// OVC110/// 24/08 Q1021 BLU
EBAW - Antwerp/Deurne, Belgium
Afstand tot: NNW 38 km
Gewijzigd: Jun 1 2020 1:50 pm
Helder  
Helder  
   Wind: Oosten 13 km/h
Wind: Oosten 13 km/h
Temperatuur: 25°C
Dauwpunt: 7°C
Vochtigheid: 32%
Barometer: 1021 hPa
Zicht: meer dan 10 km
Bewolking: Helder
EBAW 011150Z 09007KT 010V120 CAVOK 25/07 Q1021 NOSIG
EBCI - Charleroi/Gosselies, Belgium
Afstand tot: ZZW 51 km
Gewijzigd: Jun 1 2020 1:50 pm
Helder  
Helder  
   Wind: ONO 20 km/h
Wind: ONO 20 km/h
Temperatuur: 24°C
Dauwpunt: 7°C
Vochtigheid: 34%
Barometer: 1021 hPa
Zicht: meer dan 10 km
Bewolking: Helder
EBCI 011150Z AUTO 06011KT 030V090 CAVOK 24/07 Q1021
EBLG - Bierset/Liege, Belgium
Afstand tot: OZO 60 km
Gewijzigd: Jun 1 2020 1:50 pm
Helder  
Helder  
   Wind: ONO 22 km/h
Wind: ONO 22 km/h
Temperatuur: 24°C
Dauwpunt: 8°C
Vochtigheid: 36%
Barometer: 1021 hPa
Zicht: meer dan 10 km
Bewolking: Helder
EBLG 011150Z 06012KT 020V090 CAVOK 24/08 Q1021 NOSIG

Script ontwikkeld door  Saratoga-weather.org Aangepast voor de template door  Weerstation Leuven

U vindt ons ook hier:

Het Weer Aktueel

UK Metoffice

European Weather Network

WeatherCloud

Weather Underground

AWEKAS

Apparatuur in gebruik:

Weerstation
Davis VP2

Weerprogramma
Meteobridge

Weercomputer
Tl-mr3020

Webleverancier
Robohost

Davis VP2

Meteobridge

Tl-mr3020

Robohost